<?xml version="1.0" encoding="UTF-8" standalone="no" ?>
<gpx xmlns="http://www.topografix.com/GPX/1/1" xmlns:xsi="http://www.w3.org/2001/XMLSchema-instance" xsi:schemaLocation="http://www.topografix.com/GPX/1/1 http://www.topografix.com/GPX/1/1/gpx.xsd" version="1.1" creator="VisuGPX - https://www.visugpx.com">
  <metadata>
    <name>09-11-07_St_OFF-cusy</name>
    <desc><![CDATA[rando VTT sous la pluie sur les sentiers autours de chez moi !! ]]></desc>
  </metadata>
  <trk>
    <name><![CDATA[001-2009/11/07-14:32:10]]></name>
    <trkseg>
      <trkpt lat="45.73487" lon="6.00199">
        <ele>605</ele>
        <time>2009-11-07T13:32:10Z</time>
      </trkpt>
      <trkpt lat="45.73473" lon="6.00235">
        <ele>602</ele>
        <time>2009-11-07T13:32:22Z</time>
      </trkpt>
      <trkpt lat="45.73477" lon="6.00252">
        <ele>602</ele>
        <time>2009-11-07T13:32:28Z</time>
      </trkpt>
      <trkpt lat="45.7348" lon="6.00265">
        <ele>602</ele>
        <time>2009-11-07T13:32:33Z</time>
      </trkpt>
      <trkpt lat="45.73473" lon="6.00278">
        <ele>602</ele>
        <time>2009-11-07T13:32:38Z</time>
      </trkpt>
      <trkpt lat="45.73461" lon="6.00281">
        <ele>602</ele>
        <time>2009-11-07T13:32:43Z</time>
      </trkpt>
      <trkpt lat="45.73511" lon="6.0028">
        <ele>608</ele>
        <time>2009-11-07T13:32:48Z</time>
      </trkpt>
      <trkpt lat="45.73541" lon="6.00288">
        <ele>613</ele>
        <time>2009-11-07T13:32:53Z</time>
      </trkpt>
      <trkpt lat="45.7356" lon="6.00301">
        <ele>613</ele>
        <time>2009-11-07T13:32:59Z</time>
      </trkpt>
      <trkpt lat="45.73581" lon="6.00313">
        <ele>613</ele>
        <time>2009-11-07T13:33:04Z</time>
      </trkpt>
      <trkpt lat="45.73599" lon="6.00322">
        <ele>613</ele>
        <time>2009-11-07T13:33:09Z</time>
      </trkpt>
      <trkpt lat="45.73619" lon="6.0033">
        <ele>613</ele>
        <time>2009-11-07T13:33:14Z</time>
      </trkpt>
      <trkpt lat="45.73643" lon="6.00342">
        <ele>613</ele>
        <time>2009-11-07T13:33:19Z</time>
      </trkpt>
      <trkpt lat="45.73659" lon="6.00365">
        <ele>613</ele>
        <time>2009-11-07T13:33:25Z</time>
      </trkpt>
      <trkpt lat="45.73681" lon="6.00394">
        <ele>613</ele>
        <time>2009-11-07T13:33:30Z</time>
      </trkpt>
      <trkpt lat="45.737" lon="6.00423">
        <ele>613</ele>
        <time>2009-11-07T13:33:35Z</time>
      </trkpt>
      <trkpt lat="45.73717" lon="6.00451">
        <ele>613</ele>
        <time>2009-11-07T13:33:40Z</time>
      </trkpt>
      <trkpt lat="45.73732" lon="6.00477">
        <ele>613</ele>
        <time>2009-11-07T13:33:46Z</time>
      </trkpt>
      <trkpt lat="45.73746" lon="6.005">
        <ele>615</ele>
        <time>2009-11-07T13:33:51Z</time>
      </trkpt>
      <trkpt lat="45.73761" lon="6.00521">
        <ele>617</ele>
        <time>2009-11-07T13:33:56Z</time>
      </trkpt>
      <trkpt lat="45.73779" lon="6.00535">
        <ele>618</ele>
        <time>2009-11-07T13:34:01Z</time>
      </trkpt>
      <trkpt lat="45.73797" lon="6.00547">
        <ele>618</ele>
        <time>2009-11-07T13:34:06Z</time>
      </trkpt>
      <trkpt lat="45.73818" lon="6.00558">
        <ele>618</ele>
        <time>2009-11-07T13:34:11Z</time>
      </trkpt>
      <trkpt lat="45.73838" lon="6.00568">
        <ele>615</ele>
        <time>2009-11-07T13:34:16Z</time>
      </trkpt>
      <trkpt lat="45.73861" lon="6.00589">
        <ele>611</ele>
        <time>2009-11-07T13:34:22Z</time>
      </trkpt>
      <trkpt lat="45.73873" lon="6.00612">
        <ele>611</ele>
        <time>2009-11-07T13:34:27Z</time>
      </trkpt>
      <trkpt lat="45.73879" lon="6.00625">
        <ele>611</ele>
        <time>2009-11-07T13:34:32Z</time>
      </trkpt>
      <trkpt lat="45.73884" lon="6.00637">
        <ele>611</ele>
        <time>2009-11-07T13:34:37Z</time>
      </trkpt>
      <trkpt lat="45.73892" lon="6.00651">
        <ele>611</ele>
        <time>2009-11-07T13:34:42Z</time>
      </trkpt>
      <trkpt lat="45.73901" lon="6.00668">
        <ele>611</ele>
        <time>2009-11-07T13:34:47Z</time>
      </trkpt>
      <trkpt lat="45.73911" lon="6.00687">
        <ele>611</ele>
        <time>2009-11-07T13:34:52Z</time>
      </trkpt>
      <trkpt lat="45.73915" lon="6.00697">
        <ele>611</ele>
        <time>2009-11-07T13:34:58Z</time>
      </trkpt>
      <trkpt lat="45.73922" lon="6.00712">
        <ele>611</ele>
        <time>2009-11-07T13:35:03Z</time>
      </trkpt>
      <trkpt lat="45.73929" lon="6.0073">
        <ele>611</ele>
        <time>2009-11-07T13:35:09Z</time>
      </trkpt>
      <trkpt lat="45.73936" lon="6.00745">
        <ele>611</ele>
        <time>2009-11-07T13:35:14Z</time>
      </trkpt>
      <trkpt lat="45.73943" lon="6.00759">
        <ele>609</ele>
        <time>2009-11-07T13:35:19Z</time>
      </trkpt>
      <trkpt lat="45.7395" lon="6.00774">
        <ele>608</ele>
        <time>2009-11-07T13:35:25Z</time>
      </trkpt>
      <trkpt lat="45.73952" lon="6.00782">
        <ele>608</ele>
        <time>2009-11-07T13:35:30Z</time>
      </trkpt>
      <trkpt lat="45.73955" lon="6.00788">
        <ele>608</ele>
        <time>2009-11-07T13:35:35Z</time>
      </trkpt>
      <trkpt lat="45.73958" lon="6.00796">
        <ele>608</ele>
        <time>2009-11-07T13:35:40Z</time>
      </trkpt>
      <trkpt lat="45.73963" lon="6.00805">
        <ele>609</ele>
        <time>2009-11-07T13:35:46Z</time>
      </trkpt>
      <trkpt lat="45.73966" lon="6.00815">
        <ele>611</ele>
        <time>2009-11-07T13:35:51Z</time>
      </trkpt>
      <trkpt lat="45.7397" lon="6.00825">
        <ele>611</ele>
        <time>2009-11-07T13:35:56Z</time>
      </trkpt>
      <trkpt lat="45.73973" lon="6.00833">
        <ele>611</ele>
        <time>2009-11-07T13:36:02Z</time>
      </trkpt>
      <trkpt lat="45.73976" lon="6.00842">
        <ele>611</ele>
        <time>2009-11-07T13:36:07Z</time>
      </trkpt>
      <trkpt lat="45.73981" lon="6.00854">
        <ele>611</ele>
        <time>2009-11-07T13:36:13Z</time>
      </trkpt>
      <trkpt lat="45.73986" lon="6.00865">
        <ele>611</ele>
        <time>2009-11-07T13:36:18Z</time>
      </trkpt>
      <trkpt lat="45.7399" lon="6.00874">
        <ele>611</ele>
        <time>2009-11-07T13:36:23Z</time>
      </trkpt>
      <trkpt lat="45.73996" lon="6.00888">
        <ele>611</ele>
        <time>2009-11-07T13:36:28Z</time>
      </trkpt>
      <trkpt lat="45.74001" lon="6.00898">
        <ele>611</ele>
        <time>2009-11-07T13:36:34Z</time>
      </trkpt>
      <trkpt lat="45.74005" lon="6.00907">
        <ele>612</ele>
        <time>2009-11-07T13:36:39Z</time>
      </trkpt>
      <trkpt lat="45.7401" lon="6.00919">
        <ele>614</ele>
        <time>2009-11-07T13:36:45Z</time>
      </trkpt>
      <trkpt lat="45.74015" lon="6.00932">
        <ele>616</ele>
        <time>2009-11-07T13:36:51Z</time>
      </trkpt>
      <trkpt lat="45.74019" lon="6.00947">
        <ele>616</ele>
        <time>2009-11-07T13:36:56Z</time>
      </trkpt>
      <trkpt lat="45.74019" lon="6.0096">
        <ele>618</ele>
        <time>2009-11-07T13:37:02Z</time>
      </trkpt>
      <trkpt lat="45.74018" lon="6.00972">
        <ele>618</ele>
        <time>2009-11-07T13:37:07Z</time>
      </trkpt>
      <trkpt lat="45.74015" lon="6.00986">
        <ele>619</ele>
        <time>2009-11-07T13:37:12Z</time>
      </trkpt>
      <trkpt lat="45.74011" lon="6.01">
        <ele>621</ele>
        <time>2009-11-07T13:37:18Z</time>
      </trkpt>
      <trkpt lat="45.74005" lon="6.01012">
        <ele>623</ele>
        <time>2009-11-07T13:37:23Z</time>
      </trkpt>
      <trkpt lat="45.74" lon="6.01026">
        <ele>624</ele>
        <time>2009-11-07T13:37:28Z</time>
      </trkpt>
      <trkpt lat="45.73996" lon="6.01042">
        <ele>624</ele>
        <time>2009-11-07T13:37:33Z</time>
      </trkpt>
      <trkpt lat="45.73993" lon="6.01057">
        <ele>624</ele>
        <time>2009-11-07T13:37:38Z</time>
      </trkpt>
      <trkpt lat="45.73992" lon="6.01072">
        <ele>624</ele>
        <time>2009-11-07T13:37:43Z</time>
      </trkpt>
      <trkpt lat="45.73993" lon="6.01091">
        <ele>628</ele>
        <time>2009-11-07T13:37:48Z</time>
      </trkpt>
      <trkpt lat="45.73993" lon="6.01106">
        <ele>629</ele>
        <time>2009-11-07T13:37:53Z</time>
      </trkpt>
      <trkpt lat="45.73994" lon="6.01121">
        <ele>630</ele>
        <time>2009-11-07T13:37:59Z</time>
      </trkpt>
      <trkpt lat="45.73995" lon="6.01137">
        <ele>631</ele>
        <time>2009-11-07T13:38:04Z</time>
      </trkpt>
      <trkpt lat="45.73995" lon="6.01152">
        <ele>632</ele>
        <time>2009-11-07T13:38:09Z</time>
      </trkpt>
      <trkpt lat="45.73996" lon="6.01169">
        <ele>633</ele>
        <time>2009-11-07T13:38:15Z</time>
      </trkpt>
      <trkpt lat="45.73997" lon="6.01184">
        <ele>635</ele>
        <time>2009-11-07T13:38:20Z</time>
      </trkpt>
      <trkpt lat="45.73999" lon="6.01201">
        <ele>637</ele>
        <time>2009-11-07T13:38:26Z</time>
      </trkpt>
      <trkpt lat="45.74" lon="6.01215">
        <ele>638</ele>
        <time>2009-11-07T13:38:31Z</time>
      </trkpt>
      <trkpt lat="45.74002" lon="6.01229">
        <ele>639</ele>
        <time>2009-11-07T13:38:36Z</time>
      </trkpt>
      <trkpt lat="45.74005" lon="6.01247">
        <ele>640</ele>
        <time>2009-11-07T13:38:42Z</time>
      </trkpt>
      <trkpt lat="45.74008" lon="6.01263">
        <ele>641</ele>
        <time>2009-11-07T13:38:47Z</time>
      </trkpt>
      <trkpt lat="45.7401" lon="6.01278">
        <ele>642</ele>
        <time>2009-11-07T13:38:52Z</time>
      </trkpt>
      <trkpt lat="45.74012" lon="6.01291">
        <ele>642</ele>
        <time>2009-11-07T13:38:57Z</time>
      </trkpt>
      <trkpt lat="45.74015" lon="6.01307">
        <ele>643</ele>
        <time>2009-11-07T13:39:03Z</time>
      </trkpt>
      <trkpt lat="45.74016" lon="6.01315">
        <ele>644</ele>
        <time>2009-11-07T13:39:08Z</time>
      </trkpt>
      <trkpt lat="45.74024" lon="6.01325">
        <ele>647</ele>
        <time>2009-11-07T13:39:14Z</time>
      </trkpt>
      <trkpt lat="45.7403" lon="6.01329">
        <ele>650</ele>
        <time>2009-11-07T13:39:19Z</time>
      </trkpt>
      <trkpt lat="45.74037" lon="6.01336">
        <ele>651</ele>
        <time>2009-11-07T13:39:24Z</time>
      </trkpt>
      <trkpt lat="45.74043" lon="6.01344">
        <ele>651</ele>
        <time>2009-11-07T13:39:31Z</time>
      </trkpt>
      <trkpt lat="45.74042" lon="6.01359">
        <ele>651</ele>
        <time>2009-11-07T13:39:37Z</time>
      </trkpt>
      <trkpt lat="45.74034" lon="6.01367">
        <ele>651</ele>
        <time>2009-11-07T13:39:42Z</time>
      </trkpt>
      <trkpt lat="45.74025" lon="6.01368">
        <ele>651</ele>
        <time>2009-11-07T13:39:47Z</time>
      </trkpt>
      <trkpt lat="45.74016" lon="6.01368">
        <ele>651</ele>
        <time>2009-11-07T13:39:52Z</time>
      </trkpt>
      <trkpt lat="45.74007" lon="6.01368">
        <ele>651</ele>
        <time>2009-11-07T13:39:57Z</time>
      </trkpt>
      <trkpt lat="45.73998" lon="6.01372">
        <ele>648</ele>
        <time>2009-11-07T13:40:02Z</time>
      </trkpt>
      <trkpt lat="45.73994" lon="6.01381">
        <ele>647</ele>
        <time>2009-11-07T13:40:07Z</time>
      </trkpt>
      <trkpt lat="45.73993" lon="6.01392">
        <ele>647</ele>
        <time>2009-11-07T13:40:12Z</time>
      </trkpt>
      <trkpt lat="45.73993" lon="6.01402">
        <ele>646</ele>
        <time>2009-11-07T13:40:17Z</time>
      </trkpt>
      <trkpt lat="45.73996" lon="6.01414">
        <ele>646</ele>
        <time>2009-11-07T13:40:22Z</time>
      </trkpt>
      <trkpt lat="45.73998" lon="6.01424">
        <ele>646</ele>
        <time>2009-11-07T13:40:27Z</time>
      </trkpt>
      <trkpt lat="45.74003" lon="6.01432">
        <ele>646</ele>
        <time>2009-11-07T13:40:33Z</time>
      </trkpt>
      <trkpt lat="45.74012" lon="6.01437">
        <ele>650</ele>
        <time>2009-11-07T13:40:38Z</time>
      </trkpt>
      <trkpt lat="45.74022" lon="6.0144">
        <ele>655</ele>
        <time>2009-11-07T13:40:43Z</time>
      </trkpt>
      <trkpt lat="45.74034" lon="6.01446">
        <ele>660</ele>
        <time>2009-11-07T13:40:48Z</time>
      </trkpt>
      <trkpt lat="45.74039" lon="6.01452">
        <ele>662</ele>
        <time>2009-11-07T13:40:53Z</time>
      </trkpt>
      <trkpt lat="45.74045" lon="6.01461">
        <ele>663</ele>
        <time>2009-11-07T13:40:58Z</time>
      </trkpt>
      <trkpt lat="45.74051" lon="6.0147">
        <ele>663</ele>
        <time>2009-11-07T13:41:03Z</time>
      </trkpt>
      <trkpt lat="45.74055" lon="6.01477">
        <ele>663</ele>
        <time>2009-11-07T13:41:08Z</time>
      </trkpt>
      <trkpt lat="45.74059" lon="6.01484">
        <ele>663</ele>
        <time>2009-11-07T13:41:13Z</time>
      </trkpt>
      <trkpt lat="45.74063" lon="6.01493">
        <ele>663</ele>
        <time>2009-11-07T13:41:18Z</time>
      </trkpt>
      <trkpt lat="45.74068" lon="6.01501">
        <ele>663</ele>
        <time>2009-11-07T13:41:24Z</time>
      </trkpt>
      <trkpt lat="45.74073" lon="6.01498">
        <ele>663</ele>
        <time>2009-11-07T13:41:29Z</time>
      </trkpt>
      <trkpt lat="45.7408" lon="6.01491">
        <ele>663</ele>
        <time>2009-11-07T13:41:34Z</time>
      </trkpt>
      <trkpt lat="45.74087" lon="6.0148">
        <ele>663</ele>
        <time>2009-11-07T13:41:39Z</time>
      </trkpt>
      <trkpt lat="45.74096" lon="6.01466">
        <ele>663</ele>
        <time>2009-11-07T13:41:44Z</time>
      </trkpt>
      <trkpt lat="45.74103" lon="6.01448">
        <ele>663</ele>
        <time>2009-11-07T13:41:49Z</time>
      </trkpt>
      <trkpt lat="45.7411" lon="6.01431">
        <ele>660</ele>
        <time>2009-11-07T13:41:54Z</time>
      </trkpt>
      <trkpt lat="45.74119" lon="6.01407">
        <ele>657</ele>
        <time>2009-11-07T13:41:59Z</time>
      </trkpt>
      <trkpt lat="45.74124" lon="6.01391">
        <ele>656</ele>
        <time>2009-11-07T13:42:04Z</time>
      </trkpt>
      <trkpt lat="45.74131" lon="6.01378">
        <ele>651</ele>
        <time>2009-11-07T13:42:09Z</time>
      </trkpt>
      <trkpt lat="45.74146" lon="6.01375">
        <ele>649</ele>
        <time>2009-11-07T13:42:14Z</time>
      </trkpt>
      <trkpt lat="45.74166" lon="6.01384">
        <ele>649</ele>
        <time>2009-11-07T13:42:19Z</time>
      </trkpt>
      <trkpt lat="45.74179" lon="6.01399">
        <ele>650</ele>
        <time>2009-11-07T13:42:24Z</time>
      </trkpt>
      <trkpt lat="45.74197" lon="6.01414">
        <ele>650</ele>
        <time>2009-11-07T13:42:29Z</time>
      </trkpt>
      <trkpt lat="45.74219" lon="6.01422">
        <ele>650</ele>
        <time>2009-11-07T13:42:34Z</time>
      </trkpt>
      <trkpt lat="45.74225" lon="6.01432">
        <ele>650</ele>
        <time>2009-11-07T13:42:39Z</time>
      </trkpt>
      <trkpt lat="45.74226" lon="6.01441">
        <ele>650</ele>
        <time>2009-11-07T13:42:49Z</time>
      </trkpt>
      <trkpt lat="45.74226" lon="6.01442">
        <ele>648</ele>
        <time>2009-11-07T13:43:00Z</time>
      </trkpt>
      <trkpt lat="45.74227" lon="6.01441">
        <ele>645</ele>
        <time>2009-11-07T13:43:08Z</time>
      </trkpt>
      <trkpt lat="45.74227" lon="6.0144">
        <ele>645</ele>
        <time>2009-11-07T13:43:15Z</time>
      </trkpt>
      <trkpt lat="45.7423" lon="6.01443">
        <ele>645</ele>
        <time>2009-11-07T13:43:21Z</time>
      </trkpt>
      <trkpt lat="45.74228" lon="6.01439">
        <ele>645</ele>
        <time>2009-11-07T13:43:27Z</time>
      </trkpt>
      <trkpt lat="45.74227" lon="6.01425">
        <ele>645</ele>
        <time>2009-11-07T13:43:32Z</time>
      </trkpt>
      <trkpt lat="45.74228" lon="6.01399">
        <ele>644</ele>
        <time>2009-11-07T13:43:37Z</time>
      </trkpt>
      <trkpt lat="45.74235" lon="6.01371">
        <ele>644</ele>
        <time>2009-11-07T13:43:42Z</time>
      </trkpt>
      <trkpt lat="45.74237" lon="6.01345">
        <ele>645</ele>
        <time>2009-11-07T13:43:47Z</time>
      </trkpt>
      <trkpt lat="45.74246" lon="6.0132">
        <ele>646</ele>
        <time>2009-11-07T13:43:52Z</time>
      </trkpt>
      <trkpt lat="45.74266" lon="6.01311">
        <ele>644</ele>
        <time>2009-11-07T13:43:57Z</time>
      </trkpt>
      <trkpt lat="45.74282" lon="6.01298">
        <ele>642</ele>
        <time>2009-11-07T13:44:02Z</time>
      </trkpt>
      <trkpt lat="45.74296" lon="6.01284">
        <ele>637</ele>
        <time>2009-11-07T13:44:07Z</time>
      </trkpt>
      <trkpt lat="45.74305" lon="6.01263">
        <ele>632</ele>
        <time>2009-11-07T13:44:12Z</time>
      </trkpt>
      <trkpt lat="45.74308" lon="6.01246">
        <ele>628</ele>
        <time>2009-11-07T13:44:17Z</time>
      </trkpt>
      <trkpt lat="45.74315" lon="6.01225">
        <ele>626</ele>
        <time>2009-11-07T13:44:22Z</time>
      </trkpt>
      <trkpt lat="45.74327" lon="6.01199">
        <ele>621</ele>
        <time>2009-11-07T13:44:27Z</time>
      </trkpt>
      <trkpt lat="45.74336" lon="6.01166">
        <ele>616</ele>
        <time>2009-11-07T13:44:32Z</time>
      </trkpt>
      <trkpt lat="45.74352" lon="6.01132">
        <ele>610</ele>
        <time>2009-11-07T13:44:37Z</time>
      </trkpt>
      <trkpt lat="45.74357" lon="6.01107">
        <ele>604</ele>
        <time>2009-11-07T13:44:42Z</time>
      </trkpt>
      <trkpt lat="45.74368" lon="6.01108">
        <ele>601</ele>
        <time>2009-11-07T13:44:47Z</time>
      </trkpt>
      <trkpt lat="45.74379" lon="6.01111">
        <ele>601</ele>
        <time>2009-11-07T13:44:52Z</time>
      </trkpt>
      <trkpt lat="45.74392" lon="6.0111">
        <ele>605</ele>
        <time>2009-11-07T13:44:57Z</time>
      </trkpt>
      <trkpt lat="45.74404" lon="6.01118">
        <ele>608</ele>
        <time>2009-11-07T13:45:02Z</time>
      </trkpt>
      <trkpt lat="45.74409" lon="6.01123">
        <ele>610</ele>
        <time>2009-11-07T13:45:07Z</time>
      </trkpt>
      <trkpt lat="45.74416" lon="6.01128">
        <ele>612</ele>
        <time>2009-11-07T13:45:12Z</time>
      </trkpt>
      <trkpt lat="45.74423" lon="6.01134">
        <ele>614</ele>
        <time>2009-11-07T13:45:17Z</time>
      </trkpt>
      <trkpt lat="45.74431" lon="6.01141">
        <ele>616</ele>
        <time>2009-11-07T13:45:22Z</time>
      </trkpt>
      <trkpt lat="45.74439" lon="6.01148">
        <ele>618</ele>
        <time>2009-11-07T13:45:27Z</time>
      </trkpt>
      <trkpt lat="45.74447" lon="6.01153">
        <ele>620</ele>
        <time>2009-11-07T13:45:33Z</time>
      </trkpt>
      <trkpt lat="45.74453" lon="6.0116">
        <ele>621</ele>
        <time>2009-11-07T13:45:39Z</time>
      </trkpt>
      <trkpt lat="45.74461" lon="6.01167">
        <ele>623</ele>
        <time>2009-11-07T13:45:44Z</time>
      </trkpt>
      <trkpt lat="45.74468" lon="6.01177">
        <ele>623</ele>
        <time>2009-11-07T13:45:49Z</time>
      </trkpt>
      <trkpt lat="45.74472" lon="6.01187">
        <ele>623</ele>
        <time>2009-11-07T13:45:54Z</time>
      </trkpt>
      <trkpt lat="45.74473" lon="6.01194">
        <ele>623</ele>
        <time>2009-11-07T13:45:59Z</time>
      </trkpt>
      <trkpt lat="45.74474" lon="6.01203">
        <ele>623</ele>
        <time>2009-11-07T13:46:04Z</time>
      </trkpt>
      <trkpt lat="45.74476" lon="6.01213">
        <ele>623</ele>
        <time>2009-11-07T13:46:11Z</time>
      </trkpt>
      <trkpt lat="45.74478" lon="6.01217">
        <ele>623</ele>
        <time>2009-11-07T13:46:18Z</time>
      </trkpt>
      <trkpt lat="45.74476" lon="6.01218">
        <ele>623</ele>
        <time>2009-11-07T13:46:24Z</time>
      </trkpt>
      <trkpt lat="45.74471" lon="6.01222">
        <ele>623</ele>
        <time>2009-11-07T13:46:29Z</time>
      </trkpt>
      <trkpt lat="45.74468" lon="6.0123">
        <ele>623</ele>
        <time>2009-11-07T13:46:34Z</time>
      </trkpt>
      <trkpt lat="45.74461" lon="6.01234">
        <ele>621</ele>
        <time>2009-11-07T13:46:39Z</time>
      </trkpt>
      <trkpt lat="45.74459" lon="6.01235">
        <ele>620</ele>
        <time>2009-11-07T13:46:45Z</time>
      </trkpt>
      <trkpt lat="45.74452" lon="6.01234">
        <ele>620</ele>
        <time>2009-11-07T13:46:51Z</time>
      </trkpt>
      <trkpt lat="45.74444" lon="6.01232">
        <ele>620</ele>
        <time>2009-11-07T13:46:56Z</time>
      </trkpt>
      <trkpt lat="45.74437" lon="6.01232">
        <ele>619</ele>
        <time>2009-11-07T13:47:02Z</time>
      </trkpt>
      <trkpt lat="45.74431" lon="6.01236">
        <ele>619</ele>
        <time>2009-11-07T13:47:08Z</time>
      </trkpt>
      <trkpt lat="45.74428" lon="6.01245">
        <ele>619</ele>
        <time>2009-11-07T13:47:13Z</time>
      </trkpt>
      <trkpt lat="45.7443" lon="6.01256">
        <ele>621</ele>
        <time>2009-11-07T13:47:18Z</time>
      </trkpt>
      <trkpt lat="45.74435" lon="6.01262">
        <ele>624</ele>
        <time>2009-11-07T13:47:24Z</time>
      </trkpt>
      <trkpt lat="45.7444" lon="6.01266">
        <ele>628</ele>
        <time>2009-11-07T13:47:30Z</time>
      </trkpt>
      <trkpt lat="45.74445" lon="6.0127">
        <ele>631</ele>
        <time>2009-11-07T13:47:35Z</time>
      </trkpt>
      <trkpt lat="45.74449" lon="6.01275">
        <ele>634</ele>
        <time>2009-11-07T13:47:40Z</time>
      </trkpt>
      <trkpt lat="45.74455" lon="6.0128">
        <ele>638</ele>
        <time>2009-11-07T13:47:46Z</time>
      </trkpt>
      <trkpt lat="45.74461" lon="6.01284">
        <ele>640</ele>
        <time>2009-11-07T13:47:52Z</time>
      </trkpt>
      <trkpt lat="45.74467" lon="6.01292">
        <ele>640</ele>
        <time>2009-11-07T13:47:57Z</time>
      </trkpt>
      <trkpt lat="45.74471" lon="6.01299">
        <ele>640</ele>
        <time>2009-11-07T13:48:02Z</time>
      </trkpt>
      <trkpt lat="45.74476" lon="6.01307">
        <ele>641</ele>
        <time>2009-11-07T13:48:07Z</time>
      </trkpt>
      <trkpt lat="45.74483" lon="6.01317">
        <ele>642</ele>
        <time>2009-11-07T13:48:12Z</time>
      </trkpt>
      <trkpt lat="45.74489" lon="6.01331">
        <ele>642</ele>
        <time>2009-11-07T13:48:17Z</time>
      </trkpt>
      <trkpt lat="45.74493" lon="6.01347">
        <ele>642</ele>
        <time>2009-11-07T13:48:22Z</time>
      </trkpt>
      <trkpt lat="45.74501" lon="6.01363">
        <ele>643</ele>
        <time>2009-11-07T13:48:27Z</time>
      </trkpt>
      <trkpt lat="45.74509" lon="6.01379">
        <ele>644</ele>
        <time>2009-11-07T13:48:32Z</time>
      </trkpt>
      <trkpt lat="45.74519" lon="6.01394">
        <ele>644</ele>
        <time>2009-11-07T13:48:37Z</time>
      </trkpt>
      <trkpt lat="45.74531" lon="6.01413">
        <ele>644</ele>
        <time>2009-11-07T13:48:42Z</time>
      </trkpt>
      <trkpt lat="45.74542" lon="6.01429">
        <ele>645</ele>
        <time>2009-11-07T13:48:47Z</time>
      </trkpt>
      <trkpt lat="45.74549" lon="6.01446">
        <ele>645</ele>
        <time>2009-11-07T13:48:52Z</time>
      </trkpt>
      <trkpt lat="45.74559" lon="6.01459">
        <ele>646</ele>
        <time>2009-11-07T13:48:57Z</time>
      </trkpt>
      <trkpt lat="45.74571" lon="6.01473">
        <ele>649</ele>
        <time>2009-11-07T13:49:02Z</time>
      </trkpt>
      <trkpt lat="45.74575" lon="6.01482">
        <ele>649</ele>
        <time>2009-11-07T13:49:08Z</time>
      </trkpt>
      <trkpt lat="45.74578" lon="6.01488">
        <ele>649</ele>
        <time>2009-11-07T13:49:13Z</time>
      </trkpt>
      <trkpt lat="45.74581" lon="6.01496">
        <ele>649</ele>
        <time>2009-11-07T13:49:18Z</time>
      </trkpt>
      <trkpt lat="45.74585" lon="6.01504">
        <ele>650</ele>
        <time>2009-11-07T13:49:23Z</time>
      </trkpt>
      <trkpt lat="45.74583" lon="6.0151">
        <ele>651</ele>
        <time>2009-11-07T13:49:28Z</time>
      </trkpt>
      <trkpt lat="45.74577" lon="6.0151">
        <ele>651</ele>
        <time>2009-11-07T13:49:33Z</time>
      </trkpt>
      <trkpt lat="45.74572" lon="6.01507">
        <ele>651</ele>
        <time>2009-11-07T13:49:38Z</time>
      </trkpt>
      <trkpt lat="45.74567" lon="6.01502">
        <ele>651</ele>
        <time>2009-11-07T13:49:43Z</time>
      </trkpt>
      <trkpt lat="45.7456" lon="6.01497">
        <ele>651</ele>
        <time>2009-11-07T13:49:48Z</time>
      </trkpt>
      <trkpt lat="45.74555" lon="6.01494">
        <ele>651</ele>
        <time>2009-11-07T13:49:53Z</time>
      </trkpt>
      <trkpt lat="45.74556" lon="6.01492">
        <ele>651</ele>
        <time>2009-11-07T13:50:00Z</time>
      </trkpt>
      <trkpt lat="45.74557" lon="6.0149">
        <ele>651</ele>
        <time>2009-11-07T13:50:05Z</time>
      </trkpt>
      <trkpt lat="45.7456" lon="6.0149">
        <ele>652</ele>
        <time>2009-11-07T13:50:12Z</time>
      </trkpt>
      <trkpt lat="45.74567" lon="6.01493">
        <ele>652</ele>
        <time>2009-11-07T13:50:18Z</time>
      </trkpt>
      <trkpt lat="45.74575" lon="6.01502">
        <ele>652</ele>
        <time>2009-11-07T13:50:23Z</time>
      </trkpt>
      <trkpt lat="45.74583" lon="6.0151">
        <ele>652</ele>
        <time>2009-11-07T13:50:28Z</time>
      </trkpt>
      <trkpt lat="45.7458" lon="6.01501">
        <ele>652</ele>
        <time>2009-11-07T13:50:33Z</time>
      </trkpt>
      <trkpt lat="45.74576" lon="6.01492">
        <ele>648</ele>
        <time>2009-11-07T13:50:39Z</time>
      </trkpt>
      <trkpt lat="45.74582" lon="6.01498">
        <ele>647</ele>
        <time>2009-11-07T13:50:44Z</time>
      </trkpt>
      <trkpt lat="45.7459" lon="6.01516">
        <ele>646</ele>
        <time>2009-11-07T13:50:49Z</time>
      </trkpt>
      <trkpt lat="45.74592" lon="6.01538">
        <ele>644</ele>
        <time>2009-11-07T13:50:54Z</time>
      </trkpt>
      <trkpt lat="45.74592" lon="6.01556">
        <ele>644</ele>
        <time>2009-11-07T13:50:59Z</time>
      </trkpt>
      <trkpt lat="45.74592" lon="6.01573">
        <ele>644</ele>
        <time>2009-11-07T13:51:04Z</time>
      </trkpt>
      <trkpt lat="45.7459" lon="6.01591">
        <ele>641</ele>
        <time>2009-11-07T13:51:09Z</time>
      </trkpt>
      <trkpt lat="45.74581" lon="6.01604">
        <ele>641</ele>
        <time>2009-11-07T13:51:14Z</time>
      </trkpt>
      <trkpt lat="45.74566" lon="6.01613">
        <ele>641</ele>
        <time>2009-11-07T13:51:19Z</time>
      </trkpt>
      <trkpt lat="45.74553" lon="6.0162">
        <ele>641</ele>
        <time>2009-11-07T13:51:24Z</time>
      </trkpt>
      <trkpt lat="45.74541" lon="6.01628">
        <ele>641</ele>
        <time>2009-11-07T13:51:29Z</time>
      </trkpt>
      <trkpt lat="45.74531" lon="6.01634">
        <ele>640</ele>
        <time>2009-11-07T13:51:34Z</time>
      </trkpt>
      <trkpt lat="45.74522" lon="6.01641">
        <ele>640</ele>
        <time>2009-11-07T13:51:39Z</time>
      </trkpt>
      <trkpt lat="45.74513" lon="6.01646">
        <ele>640</ele>
        <time>2009-11-07T13:51:44Z</time>
      </trkpt>
      <trkpt lat="45.74505" lon="6.01652">
        <ele>640</ele>
        <time>2009-11-07T13:51:49Z</time>
      </trkpt>
      <trkpt lat="45.74495" lon="6.01657">
        <ele>640</ele>
        <time>2009-11-07T13:51:54Z</time>
      </trkpt>
      <trkpt lat="45.74488" lon="6.01662">
        <ele>640</ele>
        <time>2009-11-07T13:51:59Z</time>
      </trkpt>
      <trkpt lat="45.74479" lon="6.01667">
        <ele>640</ele>
        <time>2009-11-07T13:52:04Z</time>
      </trkpt>
      <trkpt lat="45.74471" lon="6.01673">
        <ele>640</ele>
        <time>2009-11-07T13:52:09Z</time>
      </trkpt>
      <trkpt lat="45.74464" lon="6.01679">
        <ele>640</ele>
        <time>2009-11-07T13:52:15Z</time>
      </trkpt>
      <trkpt lat="45.74458" lon="6.01685">
        <ele>640</ele>
        <time>2009-11-07T13:52:20Z</time>
      </trkpt>
      <trkpt lat="45.74452" lon="6.01693">
        <ele>640</ele>
        <time>2009-11-07T13:52:26Z</time>
      </trkpt>
      <trkpt lat="45.74449" lon="6.01701">
        <ele>641</ele>
        <time>2009-11-07T13:52:31Z</time>
      </trkpt>
      <trkpt lat="45.74445" lon="6.0171">
        <ele>644</ele>
        <time>2009-11-07T13:52:36Z</time>
      </trkpt>
      <trkpt lat="45.74442" lon="6.01718">
        <ele>646</ele>
        <time>2009-11-07T13:52:41Z</time>
      </trkpt>
      <trkpt lat="45.74437" lon="6.01726">
        <ele>648</ele>
        <time>2009-11-07T13:52:47Z</time>
      </trkpt>
      <trkpt lat="45.74433" lon="6.01734">
        <ele>651</ele>
        <time>2009-11-07T13:52:53Z</time>
      </trkpt>
      <trkpt lat="45.74428" lon="6.01742">
        <ele>653</ele>
        <time>2009-11-07T13:52:59Z</time>
      </trkpt>
      <trkpt lat="45.74423" lon="6.0175">
        <ele>653</ele>
        <time>2009-11-07T13:53:04Z</time>
      </trkpt>
      <trkpt lat="45.74418" lon="6.01759">
        <ele>653</ele>
        <time>2009-11-07T13:53:11Z</time>
      </trkpt>
      <trkpt lat="45.74411" lon="6.01769">
        <ele>655</ele>
        <time>2009-11-07T13:53:16Z</time>
      </trkpt>
      <trkpt lat="45.74405" lon="6.01774">
        <ele>656</ele>
        <time>2009-11-07T13:53:21Z</time>
      </trkpt>
      <trkpt lat="45.74398" lon="6.01786">
        <ele>656</ele>
        <time>2009-11-07T13:53:27Z</time>
      </trkpt>
      <trkpt lat="45.74391" lon="6.01793">
        <ele>656</ele>
        <time>2009-11-07T13:53:32Z</time>
      </trkpt>
      <trkpt lat="45.74385" lon="6.01797">
        <ele>656</ele>
        <time>2009-11-07T13:53:37Z</time>
      </trkpt>
      <trkpt lat="45.7438" lon="6.01797">
        <ele>659</ele>
        <time>2009-11-07T13:53:42Z</time>
      </trkpt>
      <trkpt lat="45.74379" lon="6.01804">
        <ele>661</ele>
        <time>2009-11-07T13:53:48Z</time>
      </trkpt>
      <trkpt lat="45.74385" lon="6.01803">
        <ele>662</ele>
        <time>2009-11-07T13:53:53Z</time>
      </trkpt>
      <trkpt lat="45.74395" lon="6.01801">
        <ele>663</ele>
        <time>2009-11-07T13:53:58Z</time>
      </trkpt>
      <trkpt lat="45.74406" lon="6.01798">
        <ele>665</ele>
        <time>2009-11-07T13:54:03Z</time>
      </trkpt>
      <trkpt lat="45.74417" lon="6.01794">
        <ele>667</ele>
        <time>2009-11-07T13:54:08Z</time>
      </trkpt>
      <trkpt lat="45.7443" lon="6.01793">
        <ele>668</ele>
        <time>2009-11-07T13:54:13Z</time>
      </trkpt>
      <trkpt lat="45.7444" lon="6.01792">
        <ele>668</ele>
        <time>2009-11-07T13:54:18Z</time>
      </trkpt>
      <trkpt lat="45.7445" lon="6.0179">
        <ele>669</ele>
        <time>2009-11-07T13:54:23Z</time>
      </trkpt>
      <trkpt lat="45.74461" lon="6.0179">
        <ele>669</ele>
        <time>2009-11-07T13:54:28Z</time>
      </trkpt>
      <trkpt lat="45.74474" lon="6.01791">
        <ele>669</ele>
        <time>2009-11-07T13:54:33Z</time>
      </trkpt>
      <trkpt lat="45.74484" lon="6.01789">
        <ele>672</ele>
        <time>2009-11-07T13:54:38Z</time>
      </trkpt>
      <trkpt lat="45.74496" lon="6.0179">
        <ele>676</ele>
        <time>2009-11-07T13:54:43Z</time>
      </trkpt>
      <trkpt lat="45.74511" lon="6.01794">
        <ele>677</ele>
        <time>2009-11-07T13:54:48Z</time>
      </trkpt>
      <trkpt lat="45.74531" lon="6.01797">
        <ele>677</ele>
        <time>2009-11-07T13:54:53Z</time>
      </trkpt>
      <trkpt lat="45.74548" lon="6.01796">
        <ele>677</ele>
        <time>2009-11-07T13:54:58Z</time>
      </trkpt>
      <trkpt lat="45.74564" lon="6.01795">
        <ele>676</ele>
        <time>2009-11-07T13:55:03Z</time>
      </trkpt>
      <trkpt lat="45.74581" lon="6.01795">
        <ele>675</ele>
        <time>2009-11-07T13:55:08Z</time>
      </trkpt>
      <trkpt lat="45.74595" lon="6.01793">
        <ele>674</ele>
        <time>2009-11-07T13:55:13Z</time>
      </trkpt>
      <trkpt lat="45.74608" lon="6.01791">
        <ele>674</ele>
        <time>2009-11-07T13:55:18Z</time>
      </trkpt>
      <trkpt lat="45.74619" lon="6.01789">
        <ele>674</ele>
        <time>2009-11-07T13:55:23Z</time>
      </trkpt>
      <trkpt lat="45.74631" lon="6.01788">
        <ele>674</ele>
        <time>2009-11-07T13:55:28Z</time>
      </trkpt>
      <trkpt lat="45.74645" lon="6.01799">
        <ele>675</ele>
        <time>2009-11-07T13:55:33Z</time>
      </trkpt>
      <trkpt lat="45.74661" lon="6.01819">
        <ele>675</ele>
        <time>2009-11-07T13:55:38Z</time>
      </trkpt>
      <trkpt lat="45.74672" lon="6.01834">
        <ele>676</ele>
        <time>2009-11-07T13:55:43Z</time>
      </trkpt>
      <trkpt lat="45.74683" lon="6.01848">
        <ele>677</ele>
        <time>2009-11-07T13:55:48Z</time>
      </trkpt>
      <trkpt lat="45.74693" lon="6.0186">
        <ele>677</ele>
        <time>2009-11-07T13:55:53Z</time>
      </trkpt>
      <trkpt lat="45.74704" lon="6.01873">
        <ele>679</ele>
        <time>2009-11-07T13:55:58Z</time>
      </trkpt>
      <trkpt lat="45.74711" lon="6.01889">
        <ele>681</ele>
        <time>2009-11-07T13:56:03Z</time>
      </trkpt>
      <trkpt lat="45.74711" lon="6.01904">
        <ele>683</ele>
        <time>2009-11-07T13:56:08Z</time>
      </trkpt>
      <trkpt lat="45.7471" lon="6.01918">
        <ele>684</ele>
        <time>2009-11-07T13:56:13Z</time>
      </trkpt>
      <trkpt lat="45.74707" lon="6.01926">
        <ele>684</ele>
        <time>2009-11-07T13:56:19Z</time>
      </trkpt>
      <trkpt lat="45.74701" lon="6.01932">
        <ele>684</ele>
        <time>2009-11-07T13:56:24Z</time>
      </trkpt>
      <trkpt lat="45.74695" lon="6.01939">
        <ele>684</ele>
        <time>2009-11-07T13:56:29Z</time>
      </trkpt>
      <trkpt lat="45.74689" lon="6.01942">
        <ele>680</ele>
        <time>2009-11-07T13:56:34Z</time>
      </trkpt>
      <trkpt lat="45.74683" lon="6.01946">
        <ele>675</ele>
        <time>2009-11-07T13:56:39Z</time>
      </trkpt>
      <trkpt lat="45.74675" lon="6.01953">
        <ele>671</ele>
        <time>2009-11-07T13:56:44Z</time>
      </trkpt>
      <trkpt lat="45.74669" lon="6.01961">
        <ele>669</ele>
        <time>2009-11-07T13:56:50Z</time>
      </trkpt>
      <trkpt lat="45.74663" lon="6.01964">
        <ele>668</ele>
        <time>2009-11-07T13:56:56Z</time>
      </trkpt>
      <trkpt lat="45.74657" lon="6.01966">
        <ele>668</ele>
        <time>2009-11-07T13:57:01Z</time>
      </trkpt>
      <trkpt lat="45.74653" lon="6.01967">
        <ele>667</ele>
        <time>2009-11-07T13:57:07Z</time>
      </trkpt>
      <trkpt lat="45.74651" lon="6.01969">
        <ele>667</ele>
        <time>2009-11-07T13:57:13Z</time>
      </trkpt>
      <trkpt lat="45.7465" lon="6.01975">
        <ele>669</ele>
        <time>2009-11-07T13:57:19Z</time>
      </trkpt>
      <trkpt lat="45.74649" lon="6.01978">
        <ele>669</ele>
        <time>2009-11-07T13:57:26Z</time>
      </trkpt>
      <trkpt lat="45.74647" lon="6.0198">
        <ele>666</ele>
        <time>2009-11-07T13:57:32Z</time>
      </trkpt>
      <trkpt lat="45.74645" lon="6.01979">
        <ele>661</ele>
        <time>2009-11-07T13:57:37Z</time>
      </trkpt>
      <trkpt lat="45.7465" lon="6.01977">
        <ele>663</ele>
        <time>2009-11-07T13:57:43Z</time>
      </trkpt>
      <trkpt lat="45.74658" lon="6.01973">
        <ele>670</ele>
        <time>2009-11-07T13:57:48Z</time>
      </trkpt>
      <trkpt lat="45.74668" lon="6.01962">
        <ele>677</ele>
        <time>2009-11-07T13:57:53Z</time>
      </trkpt>
      <trkpt lat="45.74679" lon="6.0195">
        <ele>682</ele>
        <time>2009-11-07T13:57:58Z</time>
      </trkpt>
      <trkpt lat="45.74691" lon="6.01936">
        <ele>686</ele>
        <time>2009-11-07T13:58:03Z</time>
      </trkpt>
      <trkpt lat="45.74709" lon="6.01926">
        <ele>687</ele>
        <time>2009-11-07T13:58:08Z</time>
      </trkpt>
      <trkpt lat="45.7472" lon="6.01929">
        <ele>687</ele>
        <time>2009-11-07T13:58:13Z</time>
      </trkpt>
      <trkpt lat="45.74726" lon="6.01944">
        <ele>686</ele>
        <time>2009-11-07T13:58:18Z</time>
      </trkpt>
      <trkpt lat="45.74733" lon="6.01965">
        <ele>686</ele>
        <time>2009-11-07T13:58:23Z</time>
      </trkpt>
      <trkpt lat="45.74739" lon="6.01988">
        <ele>685</ele>
        <time>2009-11-07T13:58:28Z</time>
      </trkpt>
      <trkpt lat="45.74742" lon="6.01998">
        <ele>684</ele>
        <time>2009-11-07T13:58:33Z</time>
      </trkpt>
      <trkpt lat="45.74745" lon="6.02018">
        <ele>679</ele>
        <time>2009-11-07T13:58:38Z</time>
      </trkpt>
      <trkpt lat="45.74746" lon="6.02038">
        <ele>674</ele>
        <time>2009-11-07T13:58:43Z</time>
      </trkpt>
      <trkpt lat="45.74747" lon="6.02056">
        <ele>669</ele>
        <time>2009-11-07T13:58:48Z</time>
      </trkpt>
      <trkpt lat="45.74753" lon="6.02078">
        <ele>664</ele>
        <time>2009-11-07T13:58:53Z</time>
      </trkpt>
      <trkpt lat="45.7477" lon="6.02095">
        <ele>663</ele>
        <time>2009-11-07T13:58:58Z</time>
      </trkpt>
      <trkpt lat="45.74793" lon="6.02113">
        <ele>666</ele>
        <time>2009-11-07T13:59:03Z</time>
      </trkpt>
      <trkpt lat="45.74829" lon="6.02128">
        <ele>666</ele>
        <time>2009-11-07T13:59:08Z</time>
      </trkpt>
      <trkpt lat="45.74864" lon="6.02138">
        <ele>666</ele>
        <time>2009-11-07T13:59:13Z</time>
      </trkpt>
      <trkpt lat="45.7489" lon="6.02131">
        <ele>666</ele>
        <time>2009-11-07T13:59:18Z</time>
      </trkpt>
      <trkpt lat="45.74915" lon="6.02122">
        <ele>662</ele>
        <time>2009-11-07T13:59:23Z</time>
      </trkpt>
      <trkpt lat="45.74942" lon="6.02117">
        <ele>652</ele>
        <time>2009-11-07T13:59:28Z</time>
      </trkpt>
      <trkpt lat="45.74961" lon="6.02121">
        <ele>645</ele>
        <time>2009-11-07T13:59:33Z</time>
      </trkpt>
      <trkpt lat="45.74982" lon="6.02137">
        <ele>640</ele>
        <time>2009-11-07T13:59:38Z</time>
      </trkpt>
      <trkpt lat="45.75004" lon="6.02147">
        <ele>640</ele>
        <time>2009-11-07T13:59:43Z</time>
      </trkpt>
      <trkpt lat="45.75025" lon="6.02155">
        <ele>640</ele>
        <time>2009-11-07T13:59:48Z</time>
      </trkpt>
      <trkpt lat="45.7505" lon="6.02162">
        <ele>640</ele>
        <time>2009-11-07T13:59:53Z</time>
      </trkpt>
      <trkpt lat="45.75075" lon="6.02168">
        <ele>640</ele>
        <time>2009-11-07T13:59:58Z</time>
      </trkpt>
      <trkpt lat="45.75099" lon="6.02174">
        <ele>640</ele>
        <time>2009-11-07T14:00:03Z</time>
      </trkpt>
      <trkpt lat="45.75117" lon="6.02181">
        <ele>640</ele>
        <time>2009-11-07T14:00:08Z</time>
      </trkpt>
      <trkpt lat="45.75135" lon="6.02183">
        <ele>640</ele>
        <time>2009-11-07T14:00:13Z</time>
      </trkpt>
      <trkpt lat="45.75148" lon="6.02181">
        <ele>640</ele>
        <time>2009-11-07T14:00:18Z</time>
      </trkpt>
      <trkpt lat="45.75165" lon="6.02177">
        <ele>639</ele>
        <time>2009-11-07T14:00:23Z</time>
      </trkpt>
      <trkpt lat="45.75187" lon="6.02179">
        <ele>639</ele>
        <time>2009-11-07T14:00:28Z</time>
      </trkpt>
      <trkpt lat="45.75195" lon="6.02174">
        <ele>637</ele>
        <time>2009-11-07T14:00:33Z</time>
      </trkpt>
      <trkpt lat="45.7519" lon="6.02171">
        <ele>632</ele>
        <time>2009-11-07T14:00:39Z</time>
      </trkpt>
      <trkpt lat="45.75182" lon="6.02166">
        <ele>629</ele>
        <time>2009-11-07T14:00:44Z</time>
      </trkpt>
      <trkpt lat="45.75174" lon="6.02158">
        <ele>627</ele>
        <time>2009-11-07T14:00:49Z</time>
      </trkpt>
      <trkpt lat="45.75183" lon="6.02152">
        <ele>625</ele>
        <time>2009-11-07T14:00:54Z</time>
      </trkpt>
      <trkpt lat="45.7519" lon="6.02145">
        <ele>622</ele>
        <time>2009-11-07T14:00:59Z</time>
      </trkpt>
      <trkpt lat="45.75194" lon="6.02136">
        <ele>621</ele>
        <time>2009-11-07T14:01:04Z</time>
      </trkpt>
      <trkpt lat="45.75195" lon="6.02123">
        <ele>621</ele>
        <time>2009-11-07T14:01:09Z</time>
      </trkpt>
      <trkpt lat="45.75196" lon="6.02109">
        <ele>625</ele>
        <time>2009-11-07T14:01:14Z</time>
      </trkpt>
      <trkpt lat="45.75199" lon="6.02094">
        <ele>629</ele>
        <time>2009-11-07T14:01:19Z</time>
      </trkpt>
      <trkpt lat="45.75202" lon="6.02082">
        <ele>629</ele>
        <time>2009-11-07T14:01:24Z</time>
      </trkpt>
      <trkpt lat="45.75209" lon="6.02068">
        <ele>630</ele>
        <time>2009-11-07T14:01:29Z</time>
      </trkpt>
      <trkpt lat="45.75214" lon="6.02056">
        <ele>634</ele>
        <time>2009-11-07T14:01:34Z</time>
      </trkpt>
      <trkpt lat="45.75224" lon="6.02042">
        <ele>639</ele>
        <time>2009-11-07T14:01:39Z</time>
      </trkpt>
      <trkpt lat="45.75224" lon="6.02026">
        <ele>644</ele>
        <time>2009-11-07T14:01:44Z</time>
      </trkpt>
      <trkpt lat="45.75217" lon="6.02014">
        <ele>647</ele>
        <time>2009-11-07T14:01:49Z</time>
      </trkpt>
      <trkpt lat="45.75213" lon="6.02008">
        <ele>647</ele>
        <time>2009-11-07T14:01:54Z</time>
      </trkpt>
      <trkpt lat="45.75206" lon="6.02001">
        <ele>647</ele>
        <time>2009-11-07T14:01:59Z</time>
      </trkpt>
      <trkpt lat="45.75201" lon="6.01994">
        <ele>643</ele>
        <time>2009-11-07T14:02:04Z</time>
      </trkpt>
      <trkpt lat="45.75202" lon="6.01992">
        <ele>638</ele>
        <time>2009-11-07T14:02:11Z</time>
      </trkpt>
      <trkpt lat="45.75203" lon="6.01993">
        <ele>637</ele>
        <time>2009-11-07T14:02:17Z</time>
      </trkpt>
      <trkpt lat="45.75209" lon="6.01996">
        <ele>637</ele>
        <time>2009-11-07T14:02:23Z</time>
      </trkpt>
      <trkpt lat="45.75213" lon="6.01996">
        <ele>640</ele>
        <time>2009-11-07T14:02:30Z</time>
      </trkpt>
      <trkpt lat="45.75216" lon="6.01995">
        <ele>640</ele>
        <time>2009-11-07T14:02:36Z</time>
      </trkpt>
      <trkpt lat="45.75218" lon="6.01993">
        <ele>640</ele>
        <time>2009-11-07T14:02:45Z</time>
      </trkpt>
      <trkpt lat="45.75217" lon="6.01991">
        <ele>641</ele>
        <time>2009-11-07T14:02:52Z</time>
      </trkpt>
      <trkpt lat="45.75216" lon="6.01993">
        <ele>642</ele>
        <time>2009-11-07T14:03:01Z</time>
      </trkpt>
      <trkpt lat="45.7521" lon="6.01994">
        <ele>642</ele>
        <time>2009-11-07T14:03:07Z</time>
      </trkpt>
      <trkpt lat="45.75197" lon="6.01993">
        <ele>642</ele>
        <time>2009-11-07T14:03:12Z</time>
      </trkpt>
      <trkpt lat="45.75184" lon="6.01989">
        <ele>640</ele>
        <time>2009-11-07T14:03:17Z</time>
      </trkpt>
      <trkpt lat="45.75166" lon="6.01979">
        <ele>638</ele>
        <time>2009-11-07T14:03:22Z</time>
      </trkpt>
      <trkpt lat="45.75149" lon="6.0197">
        <ele>638</ele>
        <time>2009-11-07T14:03:27Z</time>
      </trkpt>
      <trkpt lat="45.75132" lon="6.01964">
        <ele>638</ele>
        <time>2009-11-07T14:03:32Z</time>
      </trkpt>
      <trkpt lat="45.75116" lon="6.01965">
        <ele>638</ele>
        <time>2009-11-07T14:03:37Z</time>
      </trkpt>
      <trkpt lat="45.751" lon="6.01962">
        <ele>638</ele>
        <time>2009-11-07T14:03:42Z</time>
      </trkpt>
      <trkpt lat="45.75083" lon="6.01957">
        <ele>638</ele>
        <time>2009-11-07T14:03:47Z</time>
      </trkpt>
      <trkpt lat="45.75069" lon="6.01954">
        <ele>638</ele>
        <time>2009-11-07T14:03:52Z</time>
      </trkpt>
      <trkpt lat="45.75056" lon="6.01944">
        <ele>638</ele>
        <time>2009-11-07T14:03:57Z</time>
      </trkpt>
      <trkpt lat="45.75046" lon="6.01927">
        <ele>638</ele>
        <time>2009-11-07T14:04:02Z</time>
      </trkpt>
      <trkpt lat="45.75029" lon="6.01914">
        <ele>636</ele>
        <time>2009-11-07T14:04:07Z</time>
      </trkpt>
      <trkpt lat="45.75011" lon="6.01904">
        <ele>635</ele>
        <time>2009-11-07T14:04:12Z</time>
      </trkpt>
      <trkpt lat="45.74995" lon="6.01891">
        <ele>633</ele>
        <time>2009-11-07T14:04:17Z</time>
      </trkpt>
      <trkpt lat="45.74972" lon="6.01882">
        <ele>632</ele>
        <time>2009-11-07T14:04:22Z</time>
      </trkpt>
      <trkpt lat="45.74947" lon="6.01877">
        <ele>630</ele>
        <time>2009-11-07T14:04:27Z</time>
      </trkpt>
      <trkpt lat="45.74938" lon="6.01856">
        <ele>628</ele>
        <time>2009-11-07T14:04:32Z</time>
      </trkpt>
      <trkpt lat="45.74949" lon="6.01841">
        <ele>627</ele>
        <time>2009-11-07T14:04:37Z</time>
      </trkpt>
      <trkpt lat="45.74956" lon="6.01835">
        <ele>628</ele>
        <time>2009-11-07T14:04:44Z</time>
      </trkpt>
      <trkpt lat="45.7496" lon="6.0183">
        <ele>632</ele>
        <time>2009-11-07T14:04:50Z</time>
      </trkpt>
      <trkpt lat="45.74963" lon="6.01819">
        <ele>632</ele>
        <time>2009-11-07T14:04:55Z</time>
      </trkpt>
      <trkpt lat="45.74954" lon="6.01795">
        <ele>631</ele>
        <time>2009-11-07T14:05:00Z</time>
      </trkpt>
      <trkpt lat="45.74939" lon="6.01773">
        <ele>627</ele>
        <time>2009-11-07T14:05:05Z</time>
      </trkpt>
      <trkpt lat="45.74932" lon="6.01756">
        <ele>626</ele>
        <time>2009-11-07T14:05:10Z</time>
      </trkpt>
      <trkpt lat="45.74923" lon="6.01744">
        <ele>626</ele>
        <time>2009-11-07T14:05:15Z</time>
      </trkpt>
      <trkpt lat="45.74923" lon="6.01737">
        <ele>626</ele>
        <time>2009-11-07T14:05:20Z</time>
      </trkpt>
      <trkpt lat="45.74931" lon="6.01735">
        <ele>626</ele>
        <time>2009-11-07T14:05:25Z</time>
      </trkpt>
      <trkpt lat="45.74941" lon="6.01734">
        <ele>627</ele>
        <time>2009-11-07T14:05:30Z</time>
      </trkpt>
      <trkpt lat="45.74953" lon="6.01732">
        <ele>627</ele>
        <time>2009-11-07T14:05:35Z</time>
      </trkpt>
      <trkpt lat="45.74961" lon="6.01729">
        <ele>627</ele>
        <time>2009-11-07T14:05:40Z</time>
      </trkpt>
      <trkpt lat="45.74972" lon="6.0173">
        <ele>625</ele>
        <time>2009-11-07T14:05:45Z</time>
      </trkpt>
      <trkpt lat="45.74988" lon="6.01731">
        <ele>623</ele>
        <time>2009-11-07T14:05:50Z</time>
      </trkpt>
      <trkpt lat="45.75001" lon="6.01729">
        <ele>620</ele>
        <time>2009-11-07T14:05:55Z</time>
      </trkpt>
      <trkpt lat="45.75007" lon="6.01717">
        <ele>615</ele>
        <time>2009-11-07T14:06:00Z</time>
      </trkpt>
      <trkpt lat="45.7502" lon="6.01708">
        <ele>610</ele>
        <time>2009-11-07T14:06:05Z</time>
      </trkpt>
      <trkpt lat="45.75033" lon="6.01708">
        <ele>606</ele>
        <time>2009-11-07T14:06:10Z</time>
      </trkpt>
      <trkpt lat="45.7505" lon="6.01708">
        <ele>606</ele>
        <time>2009-11-07T14:06:15Z</time>
      </trkpt>
      <trkpt lat="45.75056" lon="6.01694">
        <ele>604</ele>
        <time>2009-11-07T14:06:20Z</time>
      </trkpt>
      <trkpt lat="45.75056" lon="6.0167">
        <ele>600</ele>
        <time>2009-11-07T14:06:25Z</time>
      </trkpt>
      <trkpt lat="45.75065" lon="6.01641">
        <ele>596</ele>
        <time>2009-11-07T14:06:30Z</time>
      </trkpt>
      <trkpt lat="45.75071" lon="6.01615">
        <ele>592</ele>
        <time>2009-11-07T14:06:35Z</time>
      </trkpt>
      <trkpt lat="45.7508" lon="6.01606">
        <ele>592</ele>
        <time>2009-11-07T14:06:40Z</time>
      </trkpt>
      <trkpt lat="45.75093" lon="6.01627">
        <ele>591</ele>
        <time>2009-11-07T14:06:45Z</time>
      </trkpt>
      <trkpt lat="45.75105" lon="6.01619">
        <ele>589</ele>
        <time>2009-11-07T14:06:50Z</time>
      </trkpt>
      <trkpt lat="45.75106" lon="6.01592">
        <ele>585</ele>
        <time>2009-11-07T14:06:55Z</time>
      </trkpt>
      <trkpt lat="45.75102" lon="6.01565">
        <ele>584</ele>
        <time>2009-11-07T14:07:00Z</time>
      </trkpt>
      <trkpt lat="45.75105" lon="6.01552">
        <ele>582</ele>
        <time>2009-11-07T14:07:05Z</time>
      </trkpt>
      <trkpt lat="45.75124" lon="6.0157">
        <ele>582</ele>
        <time>2009-11-07T14:07:10Z</time>
      </trkpt>
      <trkpt lat="45.75147" lon="6.01597">
        <ele>582</ele>
        <time>2009-11-07T14:07:15Z</time>
      </trkpt>
      <trkpt lat="45.75179" lon="6.01624">
        <ele>582</ele>
        <time>2009-11-07T14:07:20Z</time>
      </trkpt>
      <trkpt lat="45.75217" lon="6.01649">
        <ele>580</ele>
        <time>2009-11-07T14:07:25Z</time>
      </trkpt>
      <trkpt lat="45.75264" lon="6.01663">
        <ele>577</ele>
        <time>2009-11-07T14:07:30Z</time>
      </trkpt>
      <trkpt lat="45.75313" lon="6.01662">
        <ele>573</ele>
        <time>2009-11-07T14:07:35Z</time>
      </trkpt>
      <trkpt lat="45.75355" lon="6.01684">
        <ele>570</ele>
        <time>2009-11-07T14:07:40Z</time>
      </trkpt>
      <trkpt lat="45.75381" lon="6.01711">
        <ele>569</ele>
        <time>2009-11-07T14:07:45Z</time>
      </trkpt>
      <trkpt lat="45.75392" lon="6.01696">
        <ele>564</ele>
        <time>2009-11-07T14:07:50Z</time>
      </trkpt>
      <trkpt lat="45.75397" lon="6.01669">
        <ele>561</ele>
        <time>2009-11-07T14:07:55Z</time>
      </trkpt>
      <trkpt lat="45.75408" lon="6.01653">
        <ele>558</ele>
        <time>2009-11-07T14:08:00Z</time>
      </trkpt>
      <trkpt lat="45.75428" lon="6.01648">
        <ele>558</ele>
        <time>2009-11-07T14:08:05Z</time>
      </trkpt>
      <trkpt lat="45.75453" lon="6.01632">
        <ele>557</ele>
        <time>2009-11-07T14:08:10Z</time>
      </trkpt>
      <trkpt lat="45.75473" lon="6.01607">
        <ele>557</ele>
        <time>2009-11-07T14:08:15Z</time>
      </trkpt>
      <trkpt lat="45.75493" lon="6.01588">
        <ele>559</ele>
        <time>2009-11-07T14:08:20Z</time>
      </trkpt>
      <trkpt lat="45.75513" lon="6.0158">
        <ele>561</ele>
        <time>2009-11-07T14:08:25Z</time>
      </trkpt>
      <trkpt lat="45.75513" lon="6.01567">
        <ele>562</ele>
        <time>2009-11-07T14:08:30Z</time>
      </trkpt>
      <trkpt lat="45.75502" lon="6.01559">
        <ele>562</ele>
        <time>2009-11-07T14:08:35Z</time>
      </trkpt>
      <trkpt lat="45.75489" lon="6.01549">
        <ele>562</ele>
        <time>2009-11-07T14:08:40Z</time>
      </trkpt>
      <trkpt lat="45.75473" lon="6.01535">
        <ele>561</ele>
        <time>2009-11-07T14:08:45Z</time>
      </trkpt>
      <trkpt lat="45.75456" lon="6.01518">
        <ele>560</ele>
        <time>2009-11-07T14:08:50Z</time>
      </trkpt>
      <trkpt lat="45.75441" lon="6.01499">
        <ele>559</ele>
        <time>2009-11-07T14:08:55Z</time>
      </trkpt>
      <trkpt lat="45.75434" lon="6.01475">
        <ele>558</ele>
        <time>2009-11-07T14:09:00Z</time>
      </trkpt>
      <trkpt lat="45.75428" lon="6.01443">
        <ele>556</ele>
        <time>2009-11-07T14:09:05Z</time>
      </trkpt>
      <trkpt lat="45.75416" lon="6.01402">
        <ele>552</ele>
        <time>2009-11-07T14:09:10Z</time>
      </trkpt>
      <trkpt lat="45.75405" lon="6.01366">
        <ele>552</ele>
        <time>2009-11-07T14:09:15Z</time>
      </trkpt>
      <trkpt lat="45.75397" lon="6.01338">
        <ele>552</ele>
        <time>2009-11-07T14:09:20Z</time>
      </trkpt>
      <trkpt lat="45.75387" lon="6.01314">
        <ele>551</ele>
        <time>2009-11-07T14:09:25Z</time>
      </trkpt>
      <trkpt lat="45.75375" lon="6.01291">
        <ele>551</ele>
        <time>2009-11-07T14:09:30Z</time>
      </trkpt>
      <trkpt lat="45.75363" lon="6.01273">
        <ele>551</ele>
        <time>2009-11-07T14:09:35Z</time>
      </trkpt>
      <trkpt lat="45.75351" lon="6.0126">
        <ele>550</ele>
        <time>2009-11-07T14:09:40Z</time>
      </trkpt>
      <trkpt lat="45.75336" lon="6.01246">
        <ele>549</ele>
        <time>2009-11-07T14:09:45Z</time>
      </trkpt>
      <trkpt lat="45.75318" lon="6.01232">
        <ele>549</ele>
        <time>2009-11-07T14:09:50Z</time>
      </trkpt>
      <trkpt lat="45.75301" lon="6.01215">
        <ele>549</ele>
        <time>2009-11-07T14:09:55Z</time>
      </trkpt>
      <trkpt lat="45.75282" lon="6.01197">
        <ele>549</ele>
        <time>2009-11-07T14:10:00Z</time>
      </trkpt>
      <trkpt lat="45.75264" lon="6.01181">
        <ele>547</ele>
        <time>2009-11-07T14:10:05Z</time>
      </trkpt>
      <trkpt lat="45.75248" lon="6.01172">
        <ele>546</ele>
        <time>2009-11-07T14:10:10Z</time>
      </trkpt>
      <trkpt lat="45.75233" lon="6.01163">
        <ele>544</ele>
        <time>2009-11-07T14:10:15Z</time>
      </trkpt>
      <trkpt lat="45.75217" lon="6.01154">
        <ele>544</ele>
        <time>2009-11-07T14:10:20Z</time>
      </trkpt>
      <trkpt lat="45.75206" lon="6.01144">
        <ele>543</ele>
        <time>2009-11-07T14:10:25Z</time>
      </trkpt>
      <trkpt lat="45.7519" lon="6.01124">
        <ele>541</ele>
        <time>2009-11-07T14:10:30Z</time>
      </trkpt>
      <trkpt lat="45.75176" lon="6.01102">
        <ele>539</ele>
        <time>2009-11-07T14:10:35Z</time>
      </trkpt>
      <trkpt lat="45.75171" lon="6.01089">
        <ele>539</ele>
        <time>2009-11-07T14:10:40Z</time>
      </trkpt>
      <trkpt lat="45.7516" lon="6.01078">
        <ele>539</ele>
        <time>2009-11-07T14:10:45Z</time>
      </trkpt>
      <trkpt lat="45.75151" lon="6.01069">
        <ele>539</ele>
        <time>2009-11-07T14:10:50Z</time>
      </trkpt>
      <trkpt lat="45.75143" lon="6.01061">
        <ele>539</ele>
        <time>2009-11-07T14:10:55Z</time>
      </trkpt>
      <trkpt lat="45.75135" lon="6.01056">
        <ele>539</ele>
        <time>2009-11-07T14:11:02Z</time>
      </trkpt>
      <trkpt lat="45.75127" lon="6.01049">
        <ele>539</ele>
        <time>2009-11-07T14:11:07Z</time>
      </trkpt>
      <trkpt lat="45.75123" lon="6.01036">
        <ele>539</ele>
        <time>2009-11-07T14:11:12Z</time>
      </trkpt>
      <trkpt lat="45.75122" lon="6.01012">
        <ele>536</ele>
        <time>2009-11-07T14:11:17Z</time>
      </trkpt>
      <trkpt lat="45.75115" lon="6.00975">
        <ele>534</ele>
        <time>2009-11-07T14:11:22Z</time>
      </trkpt>
      <trkpt lat="45.75109" lon="6.0095">
        <ele>534</ele>
        <time>2009-11-07T14:11:27Z</time>
      </trkpt>
      <trkpt lat="45.75106" lon="6.00929">
        <ele>534</ele>
        <time>2009-11-07T14:11:32Z</time>
      </trkpt>
      <trkpt lat="45.75102" lon="6.0091">
        <ele>534</ele>
        <time>2009-11-07T14:11:37Z</time>
      </trkpt>
      <trkpt lat="45.75093" lon="6.00891">
        <ele>534</ele>
        <time>2009-11-07T14:11:42Z</time>
      </trkpt>
      <trkpt lat="45.75082" lon="6.00869">
        <ele>534</ele>
        <time>2009-11-07T14:11:47Z</time>
      </trkpt>
      <trkpt lat="45.75073" lon="6.0085">
        <ele>537</ele>
        <time>2009-11-07T14:11:52Z</time>
      </trkpt>
      <trkpt lat="45.75066" lon="6.00832">
        <ele>537</ele>
        <time>2009-11-07T14:11:57Z</time>
      </trkpt>
      <trkpt lat="45.75063" lon="6.00822">
        <ele>537</ele>
        <time>2009-11-07T14:12:03Z</time>
      </trkpt>
      <trkpt lat="45.75059" lon="6.00813">
        <ele>537</ele>
        <time>2009-11-07T14:12:08Z</time>
      </trkpt>
      <trkpt lat="45.75053" lon="6.00804">
        <ele>537</ele>
        <time>2009-11-07T14:12:13Z</time>
      </trkpt>
      <trkpt lat="45.75046" lon="6.00795">
        <ele>538</ele>
        <time>2009-11-07T14:12:18Z</time>
      </trkpt>
      <trkpt lat="45.7504" lon="6.00785">
        <ele>538</ele>
        <time>2009-11-07T14:12:23Z</time>
      </trkpt>
      <trkpt lat="45.75031" lon="6.00773">
        <ele>538</ele>
        <time>2009-11-07T14:12:28Z</time>
      </trkpt>
      <trkpt lat="45.75025" lon="6.00761">
        <ele>538</ele>
        <time>2009-11-07T14:12:33Z</time>
      </trkpt>
      <trkpt lat="45.75021" lon="6.00746">
        <ele>540</ele>
        <time>2009-11-07T14:12:38Z</time>
      </trkpt>
      <trkpt lat="45.75017" lon="6.00729">
        <ele>543</ele>
        <time>2009-11-07T14:12:43Z</time>
      </trkpt>
      <trkpt lat="45.75011" lon="6.00717">
        <ele>544</ele>
        <time>2009-11-07T14:12:48Z</time>
      </trkpt>
      <trkpt lat="45.75003" lon="6.00706">
        <ele>544</ele>
        <time>2009-11-07T14:12:53Z</time>
      </trkpt>
      <trkpt lat="45.74996" lon="6.00696">
        <ele>544</ele>
        <time>2009-11-07T14:12:58Z</time>
      </trkpt>
      <trkpt lat="45.74986" lon="6.00692">
        <ele>544</ele>
        <time>2009-11-07T14:13:03Z</time>
      </trkpt>
      <trkpt lat="45.74974" lon="6.0069">
        <ele>543</ele>
        <time>2009-11-07T14:13:08Z</time>
      </trkpt>
      <trkpt lat="45.74961" lon="6.00684">
        <ele>541</ele>
        <time>2009-11-07T14:13:13Z</time>
      </trkpt>
      <trkpt lat="45.7495" lon="6.00678">
        <ele>540</ele>
        <time>2009-11-07T14:13:18Z</time>
      </trkpt>
      <trkpt lat="45.74937" lon="6.00671">
        <ele>540</ele>
        <time>2009-11-07T14:13:23Z</time>
      </trkpt>
      <trkpt lat="45.74917" lon="6.00658">
        <ele>538</ele>
        <time>2009-11-07T14:13:28Z</time>
      </trkpt>
      <trkpt lat="45.74896" lon="6.00636">
        <ele>535</ele>
        <time>2009-11-07T14:13:33Z</time>
      </trkpt>
      <trkpt lat="45.74881" lon="6.0061">
        <ele>532</ele>
        <time>2009-11-07T14:13:38Z</time>
      </trkpt>
      <trkpt lat="45.74863" lon="6.00595">
        <ele>530</ele>
        <time>2009-11-07T14:13:43Z</time>
      </trkpt>
      <trkpt lat="45.74857" lon="6.0057">
        <ele>527</ele>
        <time>2009-11-07T14:13:48Z</time>
      </trkpt>
      <trkpt lat="45.74854" lon="6.00538">
        <ele>525</ele>
        <time>2009-11-07T14:13:53Z</time>
      </trkpt>
      <trkpt lat="45.74849" lon="6.00514">
        <ele>523</ele>
        <time>2009-11-07T14:13:58Z</time>
      </trkpt>
      <trkpt lat="45.74841" lon="6.00497">
        <ele>522</ele>
        <time>2009-11-07T14:14:03Z</time>
      </trkpt>
      <trkpt lat="45.74837" lon="6.00486">
        <ele>522</ele>
        <time>2009-11-07T14:14:08Z</time>
      </trkpt>
      <trkpt lat="45.74837" lon="6.0048">
        <ele>522</ele>
        <time>2009-11-07T14:14:13Z</time>
      </trkpt>
      <trkpt lat="45.74837" lon="6.00475">
        <ele>527</ele>
        <time>2009-11-07T14:14:18Z</time>
      </trkpt>
      <trkpt lat="45.74839" lon="6.00474">
        <ele>529</ele>
        <time>2009-11-07T14:14:37Z</time>
      </trkpt>
      <trkpt lat="45.74839" lon="6.00472">
        <ele>530</ele>
        <time>2009-11-07T14:14:46Z</time>
      </trkpt>
      <trkpt lat="45.74839" lon="6.00471">
        <ele>533</ele>
        <time>2009-11-07T14:14:54Z</time>
      </trkpt>
      <trkpt lat="45.74838" lon="6.0047">
        <ele>534</ele>
        <time>2009-11-07T14:15:06Z</time>
      </trkpt>
      <trkpt lat="45.74838" lon="6.00468">
        <ele>541</ele>
        <time>2009-11-07T14:16:36Z</time>
      </trkpt>
      <trkpt lat="45.74837" lon="6.00468">
        <ele>540</ele>
        <time>2009-11-07T14:16:58Z</time>
      </trkpt>
      <trkpt lat="45.74838" lon="6.0047">
        <ele>539</ele>
        <time>2009-11-07T14:17:03Z</time>
      </trkpt>
      <trkpt lat="45.74838" lon="6.00477">
        <ele>539</ele>
        <time>2009-11-07T14:17:08Z</time>
      </trkpt>
      <trkpt lat="45.74836" lon="6.00486">
        <ele>539</ele>
        <time>2009-11-07T14:17:13Z</time>
      </trkpt>
      <trkpt lat="45.74831" lon="6.00494">
        <ele>539</ele>
        <time>2009-11-07T14:17:18Z</time>
      </trkpt>
      <trkpt lat="45.74823" lon="6.00502">
        <ele>537</ele>
        <time>2009-11-07T14:17:23Z</time>
      </trkpt>
      <trkpt lat="45.74815" lon="6.00513">
        <ele>535</ele>
        <time>2009-11-07T14:17:28Z</time>
      </trkpt>
      <trkpt lat="45.74806" lon="6.00523">
        <ele>533</ele>
        <time>2009-11-07T14:17:33Z</time>
      </trkpt>
      <trkpt lat="45.74798" lon="6.00533">
        <ele>532</ele>
        <time>2009-11-07T14:17:38Z</time>
      </trkpt>
      <trkpt lat="45.74794" lon="6.00543">
        <ele>532</ele>
        <time>2009-11-07T14:17:43Z</time>
      </trkpt>
      <trkpt lat="45.74787" lon="6.00553">
        <ele>532</ele>
        <time>2009-11-07T14:17:48Z</time>
      </trkpt>
      <trkpt lat="45.7478" lon="6.00563">
        <ele>532</ele>
        <time>2009-11-07T14:17:53Z</time>
      </trkpt>
      <trkpt lat="45.74771" lon="6.00573">
        <ele>532</ele>
        <time>2009-11-07T14:17:58Z</time>
      </trkpt>
      <trkpt lat="45.74761" lon="6.00582">
        <ele>532</ele>
        <time>2009-11-07T14:18:03Z</time>
      </trkpt>
      <trkpt lat="45.74754" lon="6.00589">
        <ele>532</ele>
        <time>2009-11-07T14:18:08Z</time>
      </trkpt>
      <trkpt lat="45.74741" lon="6.00594">
        <ele>532</ele>
        <time>2009-11-07T14:18:13Z</time>
      </trkpt>
      <trkpt lat="45.74729" lon="6.00596">
        <ele>533</ele>
        <time>2009-11-07T14:18:18Z</time>
      </trkpt>
      <trkpt lat="45.74716" lon="6.00597">
        <ele>533</ele>
        <time>2009-11-07T14:18:23Z</time>
      </trkpt>
      <trkpt lat="45.74704" lon="6.00598">
        <ele>533</ele>
        <time>2009-11-07T14:18:28Z</time>
      </trkpt>
      <trkpt lat="45.74693" lon="6.00597">
        <ele>533</ele>
        <time>2009-11-07T14:18:33Z</time>
      </trkpt>
      <trkpt lat="45.74682" lon="6.00597">
        <ele>535</ele>
        <time>2009-11-07T14:18:38Z</time>
      </trkpt>
      <trkpt lat="45.74673" lon="6.00598">
        <ele>535</ele>
        <time>2009-11-07T14:18:43Z</time>
      </trkpt>
      <trkpt lat="45.74665" lon="6.00603">
        <ele>537</ele>
        <time>2009-11-07T14:18:48Z</time>
      </trkpt>
      <trkpt lat="45.74657" lon="6.0061">
        <ele>538</ele>
        <time>2009-11-07T14:18:53Z</time>
      </trkpt>
      <trkpt lat="45.74648" lon="6.00618">
        <ele>538</ele>
        <time>2009-11-07T14:18:58Z</time>
      </trkpt>
      <trkpt lat="45.74637" lon="6.00623">
        <ele>540</ele>
        <time>2009-11-07T14:19:03Z</time>
      </trkpt>
      <trkpt lat="45.7463" lon="6.00627">
        <ele>542</ele>
        <time>2009-11-07T14:19:08Z</time>
      </trkpt>
      <trkpt lat="45.74622" lon="6.00628">
        <ele>543</ele>
        <time>2009-11-07T14:19:13Z</time>
      </trkpt>
      <trkpt lat="45.74615" lon="6.00629">
        <ele>545</ele>
        <time>2009-11-07T14:19:18Z</time>
      </trkpt>
      <trkpt lat="45.74603" lon="6.0063">
        <ele>546</ele>
        <time>2009-11-07T14:19:23Z</time>
      </trkpt>
      <trkpt lat="45.74591" lon="6.00624">
        <ele>547</ele>
        <time>2009-11-07T14:19:28Z</time>
      </trkpt>
      <trkpt lat="45.7458" lon="6.00616">
        <ele>547</ele>
        <time>2009-11-07T14:19:33Z</time>
      </trkpt>
      <trkpt lat="45.74571" lon="6.00607">
        <ele>549</ele>
        <time>2009-11-07T14:19:38Z</time>
      </trkpt>
      <trkpt lat="45.74563" lon="6.00596">
        <ele>551</ele>
        <time>2009-11-07T14:19:43Z</time>
      </trkpt>
      <trkpt lat="45.74556" lon="6.00589">
        <ele>555</ele>
        <time>2009-11-07T14:19:48Z</time>
      </trkpt>
      <trkpt lat="45.74547" lon="6.00587">
        <ele>557</ele>
        <time>2009-11-07T14:19:53Z</time>
      </trkpt>
      <trkpt lat="45.74541" lon="6.00591">
        <ele>558</ele>
        <time>2009-11-07T14:19:58Z</time>
      </trkpt>
      <trkpt lat="45.74534" lon="6.00596">
        <ele>558</ele>
        <time>2009-11-07T14:20:03Z</time>
      </trkpt>
      <trkpt lat="45.74533" lon="6.00609">
        <ele>559</ele>
        <time>2009-11-07T14:20:08Z</time>
      </trkpt>
      <trkpt lat="45.74531" lon="6.0062">
        <ele>561</ele>
        <time>2009-11-07T14:20:13Z</time>
      </trkpt>
      <trkpt lat="45.74529" lon="6.00628">
        <ele>562</ele>
        <time>2009-11-07T14:20:18Z</time>
      </trkpt>
      <trkpt lat="45.7453" lon="6.00642">
        <ele>562</ele>
        <time>2009-11-07T14:20:23Z</time>
      </trkpt>
      <trkpt lat="45.74529" lon="6.00652">
        <ele>562</ele>
        <time>2009-11-07T14:20:28Z</time>
      </trkpt>
      <trkpt lat="45.74529" lon="6.00664">
        <ele>562</ele>
        <time>2009-11-07T14:20:33Z</time>
      </trkpt>
      <trkpt lat="45.74531" lon="6.00676">
        <ele>562</ele>
        <time>2009-11-07T14:20:38Z</time>
      </trkpt>
      <trkpt lat="45.74528" lon="6.00687">
        <ele>562</ele>
        <time>2009-11-07T14:20:43Z</time>
      </trkpt>
      <trkpt lat="45.74528" lon="6.00703">
        <ele>562</ele>
        <time>2009-11-07T14:20:48Z</time>
      </trkpt>
      <trkpt lat="45.74528" lon="6.00715">
        <ele>562</ele>
        <time>2009-11-07T14:20:53Z</time>
      </trkpt>
      <trkpt lat="45.74532" lon="6.00729">
        <ele>559</ele>
        <time>2009-11-07T14:20:58Z</time>
      </trkpt>
      <trkpt lat="45.74536" lon="6.00742">
        <ele>554</ele>
        <time>2009-11-07T14:21:03Z</time>
      </trkpt>
      <trkpt lat="45.74538" lon="6.00753">
        <ele>553</ele>
        <time>2009-11-07T14:21:08Z</time>
      </trkpt>
      <trkpt lat="45.74537" lon="6.00763">
        <ele>553</ele>
        <time>2009-11-07T14:21:13Z</time>
      </trkpt>
      <trkpt lat="45.74535" lon="6.00776">
        <ele>553</ele>
        <time>2009-11-07T14:21:18Z</time>
      </trkpt>
      <trkpt lat="45.74536" lon="6.00786">
        <ele>554</ele>
        <time>2009-11-07T14:21:23Z</time>
      </trkpt>
      <trkpt lat="45.74533" lon="6.00791">
        <ele>557</ele>
        <time>2009-11-07T14:21:28Z</time>
      </trkpt>
      <trkpt lat="45.74526" lon="6.00788">
        <ele>560</ele>
        <time>2009-11-07T14:21:33Z</time>
      </trkpt>
      <trkpt lat="45.74518" lon="6.00786">
        <ele>565</ele>
        <time>2009-11-07T14:21:38Z</time>
      </trkpt>
      <trkpt lat="45.74508" lon="6.00784">
        <ele>568</ele>
        <time>2009-11-07T14:21:43Z</time>
      </trkpt>
      <trkpt lat="45.74497" lon="6.0078">
        <ele>569</ele>
        <time>2009-11-07T14:21:48Z</time>
      </trkpt>
      <trkpt lat="45.74484" lon="6.0077">
        <ele>569</ele>
        <time>2009-11-07T14:21:53Z</time>
      </trkpt>
      <trkpt lat="45.74474" lon="6.00756">
        <ele>569</ele>
        <time>2009-11-07T14:21:58Z</time>
      </trkpt>
      <trkpt lat="45.74469" lon="6.00738">
        <ele>568</ele>
        <time>2009-11-07T14:22:03Z</time>
      </trkpt>
      <trkpt lat="45.74467" lon="6.00719">
        <ele>568</ele>
        <time>2009-11-07T14:22:08Z</time>
      </trkpt>
      <trkpt lat="45.74462" lon="6.00698">
        <ele>568</ele>
        <time>2009-11-07T14:22:13Z</time>
      </trkpt>
      <trkpt lat="45.74452" lon="6.00675">
        <ele>568</ele>
        <time>2009-11-07T14:22:18Z</time>
      </trkpt>
      <trkpt lat="45.7444" lon="6.00657">
        <ele>568</ele>
        <time>2009-11-07T14:22:23Z</time>
      </trkpt>
      <trkpt lat="45.74422" lon="6.00638">
        <ele>568</ele>
        <time>2009-11-07T14:22:28Z</time>
      </trkpt>
      <trkpt lat="45.74405" lon="6.00623">
        <ele>568</ele>
        <time>2009-11-07T14:22:33Z</time>
      </trkpt>
      <trkpt lat="45.74383" lon="6.00605">
        <ele>568</ele>
        <time>2009-11-07T14:22:38Z</time>
      </trkpt>
      <trkpt lat="45.74367" lon="6.0059">
        <ele>568</ele>
        <time>2009-11-07T14:22:43Z</time>
      </trkpt>
      <trkpt lat="45.74354" lon="6.00575">
        <ele>568</ele>
        <time>2009-11-07T14:22:48Z</time>
      </trkpt>
      <trkpt lat="45.74343" lon="6.00556">
        <ele>568</ele>
        <time>2009-11-07T14:22:53Z</time>
      </trkpt>
      <trkpt lat="45.74336" lon="6.00536">
        <ele>568</ele>
        <time>2009-11-07T14:22:58Z</time>
      </trkpt>
      <trkpt lat="45.74329" lon="6.00517">
        <ele>568</ele>
        <time>2009-11-07T14:23:03Z</time>
      </trkpt>
      <trkpt lat="45.74321" lon="6.00502">
        <ele>568</ele>
        <time>2009-11-07T14:23:08Z</time>
      </trkpt>
      <trkpt lat="45.74312" lon="6.00488">
        <ele>568</ele>
        <time>2009-11-07T14:23:13Z</time>
      </trkpt>
      <trkpt lat="45.74304" lon="6.00475">
        <ele>567</ele>
        <time>2009-11-07T14:23:18Z</time>
      </trkpt>
      <trkpt lat="45.74298" lon="6.00463">
        <ele>567</ele>
        <time>2009-11-07T14:23:23Z</time>
      </trkpt>
      <trkpt lat="45.74291" lon="6.00448">
        <ele>567</ele>
        <time>2009-11-07T14:23:28Z</time>
      </trkpt>
      <trkpt lat="45.74282" lon="6.0043">
        <ele>567</ele>
        <time>2009-11-07T14:23:33Z</time>
      </trkpt>
      <trkpt lat="45.74274" lon="6.00413">
        <ele>567</ele>
        <time>2009-11-07T14:23:38Z</time>
      </trkpt>
      <trkpt lat="45.74268" lon="6.00398">
        <ele>567</ele>
        <time>2009-11-07T14:23:43Z</time>
      </trkpt>
      <trkpt lat="45.74259" lon="6.00381">
        <ele>569</ele>
        <time>2009-11-07T14:23:49Z</time>
      </trkpt>
      <trkpt lat="45.74248" lon="6.00366">
        <ele>570</ele>
        <time>2009-11-07T14:23:54Z</time>
      </trkpt>
      <trkpt lat="45.74235" lon="6.00352">
        <ele>570</ele>
        <time>2009-11-07T14:23:59Z</time>
      </trkpt>
      <trkpt lat="45.74221" lon="6.00341">
        <ele>570</ele>
        <time>2009-11-07T14:24:04Z</time>
      </trkpt>
      <trkpt lat="45.74208" lon="6.00332">
        <ele>570</ele>
        <time>2009-11-07T14:24:09Z</time>
      </trkpt>
      <trkpt lat="45.74192" lon="6.00314">
        <ele>570</ele>
        <time>2009-11-07T14:24:14Z</time>
      </trkpt>
      <trkpt lat="45.74183" lon="6.00288">
        <ele>570</ele>
        <time>2009-11-07T14:24:19Z</time>
      </trkpt>
      <trkpt lat="45.74177" lon="6.00259">
        <ele>570</ele>
        <time>2009-11-07T14:24:24Z</time>
      </trkpt>
      <trkpt lat="45.74172" lon="6.00232">
        <ele>570</ele>
        <time>2009-11-07T14:24:29Z</time>
      </trkpt>
      <trkpt lat="45.74165" lon="6.00204">
        <ele>570</ele>
        <time>2009-11-07T14:24:34Z</time>
      </trkpt>
      <trkpt lat="45.74159" lon="6.00177">
        <ele>571</ele>
        <time>2009-11-07T14:24:39Z</time>
      </trkpt>
      <trkpt lat="45.74151" lon="6.00152">
        <ele>572</ele>
        <time>2009-11-07T14:24:44Z</time>
      </trkpt>
      <trkpt lat="45.7414" lon="6.0013">
        <ele>572</ele>
        <time>2009-11-07T14:24:49Z</time>
      </trkpt>
      <trkpt lat="45.74125" lon="6.00112">
        <ele>573</ele>
        <time>2009-11-07T14:24:54Z</time>
      </trkpt>
      <trkpt lat="45.74109" lon="6.00095">
        <ele>573</ele>
        <time>2009-11-07T14:24:59Z</time>
      </trkpt>
      <trkpt lat="45.74093" lon="6.00079">
        <ele>573</ele>
        <time>2009-11-07T14:25:04Z</time>
      </trkpt>
      <trkpt lat="45.74076" lon="6.00061">
        <ele>573</ele>
        <time>2009-11-07T14:25:09Z</time>
      </trkpt>
      <trkpt lat="45.74059" lon="6.00041">
        <ele>573</ele>
        <time>2009-11-07T14:25:14Z</time>
      </trkpt>
      <trkpt lat="45.74043" lon="6.00021">
        <ele>573</ele>
        <time>2009-11-07T14:25:19Z</time>
      </trkpt>
      <trkpt lat="45.74021" lon="6.00002">
        <ele>573</ele>
        <time>2009-11-07T14:25:24Z</time>
      </trkpt>
      <trkpt lat="45.73999" lon="5.99981">
        <ele>573</ele>
        <time>2009-11-07T14:25:29Z</time>
      </trkpt>
      <trkpt lat="45.73976" lon="5.9996">
        <ele>572</ele>
        <time>2009-11-07T14:25:34Z</time>
      </trkpt>
      <trkpt lat="45.73951" lon="5.99947">
        <ele>571</ele>
        <time>2009-11-07T14:25:39Z</time>
      </trkpt>
      <trkpt lat="45.73926" lon="5.99947">
        <ele>570</ele>
        <time>2009-11-07T14:25:44Z</time>
      </trkpt>
      <trkpt lat="45.73902" lon="5.99944">
        <ele>570</ele>
        <time>2009-11-07T14:25:49Z</time>
      </trkpt>
      <trkpt lat="45.73877" lon="5.99935">
        <ele>570</ele>
        <time>2009-11-07T14:25:55Z</time>
      </trkpt>
      <trkpt lat="45.73863" lon="5.99925">
        <ele>570</ele>
        <time>2009-11-07T14:26:00Z</time>
      </trkpt>
      <trkpt lat="45.73849" lon="5.99916">
        <ele>570</ele>
        <time>2009-11-07T14:26:05Z</time>
      </trkpt>
      <trkpt lat="45.73834" lon="5.99909">
        <ele>572</ele>
        <time>2009-11-07T14:26:10Z</time>
      </trkpt>
      <trkpt lat="45.73821" lon="5.99904">
        <ele>574</ele>
        <time>2009-11-07T14:26:15Z</time>
      </trkpt>
      <trkpt lat="45.73807" lon="5.99901">
        <ele>576</ele>
        <time>2009-11-07T14:26:20Z</time>
      </trkpt>
      <trkpt lat="45.73792" lon="5.99898">
        <ele>577</ele>
        <time>2009-11-07T14:26:25Z</time>
      </trkpt>
      <trkpt lat="45.7378" lon="5.99891">
        <ele>577</ele>
        <time>2009-11-07T14:26:30Z</time>
      </trkpt>
      <trkpt lat="45.73767" lon="5.99881">
        <ele>578</ele>
        <time>2009-11-07T14:26:36Z</time>
      </trkpt>
      <trkpt lat="45.73756" lon="5.99875">
        <ele>580</ele>
        <time>2009-11-07T14:26:41Z</time>
      </trkpt>
      <trkpt lat="45.7374" lon="5.99868">
        <ele>582</ele>
        <time>2009-11-07T14:26:47Z</time>
      </trkpt>
      <trkpt lat="45.73729" lon="5.99864">
        <ele>583</ele>
        <time>2009-11-07T14:26:52Z</time>
      </trkpt>
      <trkpt lat="45.73721" lon="5.99858">
        <ele>585</ele>
        <time>2009-11-07T14:26:57Z</time>
      </trkpt>
      <trkpt lat="45.73713" lon="5.9985">
        <ele>586</ele>
        <time>2009-11-07T14:27:03Z</time>
      </trkpt>
      <trkpt lat="45.73703" lon="5.99859">
        <ele>586</ele>
        <time>2009-11-07T14:27:08Z</time>
      </trkpt>
      <trkpt lat="45.73698" lon="5.99875">
        <ele>586</ele>
        <time>2009-11-07T14:27:13Z</time>
      </trkpt>
      <trkpt lat="45.73692" lon="5.99895">
        <ele>586</ele>
        <time>2009-11-07T14:27:18Z</time>
      </trkpt>
      <trkpt lat="45.73682" lon="5.99918">
        <ele>586</ele>
        <time>2009-11-07T14:27:23Z</time>
      </trkpt>
      <trkpt lat="45.73668" lon="5.9995">
        <ele>586</ele>
        <time>2009-11-07T14:27:29Z</time>
      </trkpt>
      <trkpt lat="45.73651" lon="5.99975">
        <ele>586</ele>
        <time>2009-11-07T14:27:34Z</time>
      </trkpt>
      <trkpt lat="45.73628" lon="6.00007">
        <ele>586</ele>
        <time>2009-11-07T14:27:40Z</time>
      </trkpt>
      <trkpt lat="45.73608" lon="6.00038">
        <ele>585</ele>
        <time>2009-11-07T14:27:45Z</time>
      </trkpt>
      <trkpt lat="45.7359" lon="6.00069">
        <ele>585</ele>
        <time>2009-11-07T14:27:50Z</time>
      </trkpt>
      <trkpt lat="45.73573" lon="6.00096">
        <ele>585</ele>
        <time>2009-11-07T14:27:56Z</time>
      </trkpt>
      <trkpt lat="45.73561" lon="6.00114">
        <ele>585</ele>
        <time>2009-11-07T14:28:01Z</time>
      </trkpt>
      <trkpt lat="45.73544" lon="6.00111">
        <ele>585</ele>
        <time>2009-11-07T14:28:06Z</time>
      </trkpt>
      <trkpt lat="45.73527" lon="6.00101">
        <ele>585</ele>
        <time>2009-11-07T14:28:11Z</time>
      </trkpt>
      <trkpt lat="45.73507" lon="6.0009">
        <ele>586</ele>
        <time>2009-11-07T14:28:17Z</time>
      </trkpt>
      <trkpt lat="45.73491" lon="6.00082">
        <ele>586</ele>
        <time>2009-11-07T14:28:22Z</time>
      </trkpt>
      <trkpt lat="45.73477" lon="6.00088">
        <ele>586</ele>
        <time>2009-11-07T14:28:28Z</time>
      </trkpt>
      <trkpt lat="45.73475" lon="6.001">
        <ele>586</ele>
        <time>2009-11-07T14:28:33Z</time>
      </trkpt>
      <trkpt lat="45.73474" lon="6.00111">
        <ele>586</ele>
        <time>2009-11-07T14:28:38Z</time>
      </trkpt>
      <trkpt lat="45.73475" lon="6.0012">
        <ele>586</ele>
        <time>2009-11-07T14:28:43Z</time>
      </trkpt>
      <trkpt lat="45.73477" lon="6.0013">
        <ele>586</ele>
        <time>2009-11-07T14:28:48Z</time>
      </trkpt>
      <trkpt lat="45.73477" lon="6.0014">
        <ele>586</ele>
        <time>2009-11-07T14:28:54Z</time>
      </trkpt>
      <trkpt lat="45.73475" lon="6.00146">
        <ele>587</ele>
        <time>2009-11-07T14:29:06Z</time>
      </trkpt>
      <trkpt lat="45.73478" lon="6.0015">
        <ele>587</ele>
        <time>2009-11-07T14:29:12Z</time>
      </trkpt>
      <trkpt lat="45.73478" lon="6.00153">
        <ele>587</ele>
        <time>2009-11-07T14:29:22Z</time>
      </trkpt>
      <trkpt lat="45.73475" lon="6.00155">
        <ele>587</ele>
        <time>2009-11-07T14:29:30Z</time>
      </trkpt>
      <trkpt lat="45.73475" lon="6.00155">
        <ele>586</ele>
        <time>2009-11-07T14:29:36Z</time>
      </trkpt>
    </trkseg>
  </trk>
</gpx>